メインページ
METAR-TAF:

METAR-TAF

空港 :

インカ・マンコ・カパック国際空港

フリアカ, ペルー

緯度: 15-29S, 経度: 070-09W, 海抜: 3826m

現時点の気象観測

当レポートは5時間6分前の02:00(UTC)に作成
南西の風 6kt
気温 10°C
湿度 66%
気圧 1036 hPa
視程10km以上
高度2500ftの雲は散在している
高度10000ftの千切れ雲あり

METAR: SPJL 240200Z 22006KT 9999 SCT025 BKN100 10/04 Q1036 RMK PP000

時間: 02:06 (07:06 UTC)

予報

当レポートは8時間6分前の23:00(UTC)に作成
予報は24日の 00時(UTC)から 24日の 24時(UTC)まで有効
変向風 4kt
視程10km以上
高度2000ftの雲は散在している
24日の 0900時(UTC)から
変向風 3kt
視程10km以上
高度1200ftの雲は散在している
高度8000ftの雲は散在している
24日の 1700時(UTC)から
北東の風 6kt
視程10km以上
高度2000ftの雲は散在している

TAF: SPJL 232300Z 2400/2424 VRB04KT 9999 SCT020 TX19/2418Z TN04/2410Z FM240900 VRB03KT 9999 SCT012 SCT080 FM241700 05006KT 9999 SCT020

4,000以上の空港の気象観測と天気予報(METAR報とTAF報)

利用可能な観測所は地図上に黄色い丸と赤い丸で示す。

丸の上にカーソルを重ねると観測所名を参照できる。

次にクリックすると気象観測と天気予報を参照できる。

マップの切り替え:黒色「×」印の緑ボタンをクリックして拡大、「-」印の緑ボタンをクリックして縮小、緑色の三角印をクリックして隣りの地図に切り替え


METAR-TAF: